createdAt,value
2018-09-11T00:00:03.198Z,8.10
2018-09-11T00:01:03.199Z,8.20
2018-09-11T00:02:03.212Z,7.00
2018-09-11T00:03:03.242Z,4.00
2018-09-11T00:04:03.250Z,3.60
2018-09-11T00:05:03.256Z,3.70
2018-09-11T00:06:03.283Z,3.80
2018-09-11T00:07:03.291Z,4.90
2018-09-11T00:08:03.304Z,4.50
2018-09-11T00:09:03.457Z,10.40
2018-09-11T00:10:03.312Z,16.10
2018-09-11T00:11:03.340Z,14.90
2018-09-11T00:12:03.345Z,25.70
2018-09-11T00:13:03.355Z,24.10
2018-09-11T00:14:03.516Z,14.90
2018-09-11T00:15:03.381Z,13.10
2018-09-11T00:16:03.390Z,5.00
2018-09-11T00:17:03.410Z,4.70
2018-09-11T00:18:03.429Z,6.60
2018-09-11T00:19:03.620Z,7.30
2018-09-11T00:20:03.445Z,9.10
2018-09-11T00:21:03.457Z,8.20
2018-09-11T00:22:03.489Z,3.80
2018-09-11T00:23:03.487Z,6.80
2018-09-11T00:24:03.607Z,5.80
2018-09-11T00:25:03.509Z,5.20
2018-09-11T00:26:03.535Z,6.10
2018-09-11T00:27:03.549Z,4.80
2018-09-11T00:28:03.549Z,9.30
2018-09-11T00:29:03.674Z,5.90
2018-09-11T00:30:03.587Z,13.80
2018-09-11T00:31:03.600Z,10.60
2018-09-11T00:32:03.613Z,10.20
2018-09-11T00:33:03.625Z,5.70
2018-09-11T00:34:03.737Z,6.80
2018-09-11T00:35:03.651Z,8.40
2018-09-11T00:36:03.652Z,9.60
2018-09-11T00:37:03.662Z,6.20
2018-09-11T00:38:03.676Z,5.60
2018-09-11T00:39:03.699Z,5.70
2018-09-11T00:40:03.700Z,6.20
2018-09-11T00:41:03.728Z,8.20
2018-09-11T00:42:03.728Z,4.40
2018-09-11T00:43:03.739Z,4.40
2018-09-11T00:44:03.902Z,4.30
2018-09-11T00:45:03.777Z,4.60
2018-09-11T00:46:03.791Z,5.50
2018-09-11T00:47:03.795Z,6.90
2018-09-11T00:48:03.815Z,8.30
2018-09-11T00:49:03.827Z,8.30
2018-09-11T00:50:03.832Z,8.30
2018-09-11T00:51:03.851Z,8.40
2018-09-11T00:52:03.868Z,5.90
2018-09-11T00:53:03.862Z,6.50
2018-09-11T00:54:03.977Z,5.00
2018-09-11T00:55:03.892Z,3.70
2018-09-11T00:56:03.917Z,3.70
2018-09-11T00:57:03.919Z,3.20
2018-09-11T00:58:03.942Z,3.00
2018-09-11T00:59:04.048Z,3.70
2018-09-11T01:00:03.954Z,4.50
2018-09-11T01:01:03.997Z,4.60
2018-09-11T01:02:03.996Z,5.40
2018-09-11T01:03:03.995Z,5.20
2018-09-11T01:04:04.121Z,4.00
2018-09-11T01:05:04.019Z,4.20
2018-09-11T01:06:04.035Z,3.70
2018-09-11T01:07:04.058Z,3.60
2018-09-11T01:08:04.063Z,5.10
2018-09-11T01:09:04.087Z,3.40
2018-09-11T01:10:04.155Z,3.30
2018-09-11T01:11:04.093Z,3.40
2018-09-11T01:12:04.113Z,3.50
2018-09-11T01:13:04.120Z,3.30
2018-09-11T01:14:04.296Z,3.20
2018-09-11T01:15:04.146Z,4.10
2018-09-11T01:16:04.156Z,4.00
2018-09-11T01:17:04.188Z,3.70
2018-09-11T01:18:04.184Z,3.10
2018-09-11T01:19:04.197Z,3.20
2018-09-11T01:20:04.324Z,3.20
2018-09-11T01:21:04.237Z,2.90
2018-09-11T01:22:04.236Z,3.40
2018-09-11T01:23:04.251Z,3.00
2018-09-11T01:24:04.260Z,3.20
2018-09-11T01:25:04.373Z,3.30
2018-09-11T01:26:04.298Z,3.20
2018-09-11T01:27:04.300Z,3.10
2018-09-11T01:28:04.322Z,3.30
2018-09-11T01:29:04.321Z,2.80
2018-09-11T01:30:04.336Z,3.30
2018-09-11T01:31:04.358Z,3.00
2018-09-11T01:32:04.371Z,3.20
2018-09-11T01:33:04.386Z,3.00
2018-09-11T01:34:04.379Z,3.10
2018-09-11T01:35:04.562Z,3.00
2018-09-11T01:36:04.408Z,3.20
2018-09-11T01:37:04.421Z,3.10
2018-09-11T01:38:04.447Z,3.00
2018-09-11T01:39:04.446Z,3.60
2018-09-11T01:40:04.562Z,3.30
2018-09-11T01:41:04.485Z,3.00
2018-09-11T01:42:04.496Z,3.30
2018-09-11T01:43:04.509Z,3.20
2018-09-11T01:44:04.503Z,4.20
2018-09-11T01:45:04.521Z,2.90
2018-09-11T01:46:04.528Z,2.80
2018-09-11T01:47:04.557Z,3.30
2018-09-11T01:48:04.572Z,3.20
2018-09-11T01:49:04.571Z,3.10
2018-09-11T01:50:04.746Z,3.20
2018-09-11T01:51:04.598Z,3.20
2018-09-11T01:52:04.618Z,3.50
2018-09-11T01:53:04.623Z,3.40
2018-09-11T01:54:04.630Z,3.20
2018-09-11T01:55:04.792Z,3.70
2018-09-11T01:56:04.670Z,3.70
2018-09-11T01:57:04.673Z,3.00
2018-09-11T01:58:04.677Z,3.30
2018-09-11T01:59:04.701Z,4.00
2018-09-11T02:00:04.850Z,4.10
2018-09-11T02:01:04.715Z,3.50
2018-09-11T02:02:04.741Z,3.30
2018-09-11T02:03:04.742Z,3.00
2018-09-11T02:04:04.759Z,2.90
2018-09-11T02:05:04.879Z,2.70
2018-09-11T02:06:04.780Z,2.90
2018-09-11T02:07:04.804Z,2.90
2018-09-11T02:08:04.803Z,3.20
2018-09-11T02:09:04.820Z,3.10
2018-09-11T02:10:04.942Z,2.70
2018-09-11T02:11:04.837Z,2.90
2018-09-11T02:12:04.863Z,3.50
2018-09-11T02:13:04.866Z,2.90
2018-09-11T02:14:04.893Z,3.40
2018-09-11T02:15:05.055Z,4.60
2018-09-11T02:16:04.898Z,4.70
2018-09-11T02:17:04.908Z,4.10
2018-09-11T02:18:04.926Z,4.40
2018-09-11T02:19:04.953Z,4.20
2018-09-11T02:20:05.051Z,5.10
2018-09-11T02:21:04.963Z,5.10
2018-09-11T02:22:04.986Z,4.40
2018-09-11T02:23:05.001Z,3.90
2018-09-11T02:24:05.024Z,5.00
2018-09-11T02:25:05.009Z,4.80
2018-09-11T02:26:05.037Z,5.90
2018-09-11T02:27:05.033Z,5.10
2018-09-11T02:28:05.049Z,2.90
2018-09-11T02:29:05.060Z,4.10
2018-09-11T02:30:05.188Z,3.80
2018-09-11T02:31:05.099Z,3.30
2018-09-11T02:32:05.101Z,4.20
2018-09-11T02:33:05.121Z,3.00
2018-09-11T02:34:05.133Z,2.90
2018-09-11T02:35:05.145Z,2.70
2018-09-11T02:36:05.311Z,2.80
2018-09-11T02:37:05.159Z,2.60
2018-09-11T02:38:05.180Z,2.80
2018-09-11T02:39:05.180Z,3.50
2018-09-11T02:40:05.204Z,3.10
2018-09-11T02:41:05.308Z,3.20
2018-09-11T02:42:05.231Z,3.00
2018-09-11T02:43:05.244Z,3.60
2018-09-11T02:44:05.254Z,3.50
2018-09-11T02:45:05.267Z,3.50
2018-09-11T02:46:05.434Z,3.80
2018-09-11T02:47:05.280Z,3.50
2018-09-11T02:48:05.305Z,3.90
2018-09-11T02:49:05.303Z,3.50
2018-09-11T02:50:05.312Z,3.50
2018-09-11T02:51:05.444Z,4.40
2018-09-11T02:52:05.336Z,4.00
2018-09-11T02:53:05.350Z,3.60
2018-09-11T02:54:05.366Z,2.80
2018-09-11T02:55:05.378Z,3.70
2018-09-11T02:56:05.487Z,3.50
2018-09-11T02:57:05.404Z,3.80
2018-09-11T02:58:05.424Z,4.80
2018-09-11T02:59:05.462Z,4.90
2018-09-11T03:00:05.454Z,4.60
2018-09-11T03:01:05.560Z,4.90
2018-09-11T03:02:05.459Z,6.40
2018-09-11T03:03:05.489Z,6.20
2018-09-11T03:04:05.531Z,6.30
2018-09-11T03:05:05.513Z,6.30
2018-09-11T03:06:05.507Z,5.20
2018-09-11T03:07:05.523Z,4.20
2018-09-11T03:08:05.545Z,4.50
2018-09-11T03:09:05.548Z,4.10
2018-09-11T03:10:05.573Z,4.40
2018-09-11T03:11:05.679Z,4.40
2018-09-11T03:12:05.592Z,3.70
2018-09-11T03:13:05.606Z,3.50
2018-09-11T03:14:05.621Z,3.80
2018-09-11T03:15:05.622Z,3.50
2018-09-11T03:16:05.743Z,3.40
2018-09-11T03:17:05.655Z,3.90
2018-09-11T03:18:05.698Z,3.40
2018-09-11T03:19:05.668Z,3.90
2018-09-11T03:20:05.678Z,3.70
2018-09-11T03:21:05.856Z,3.30
2018-09-11T03:22:05.714Z,3.60
2018-09-11T03:23:05.718Z,3.70
2018-09-11T03:24:05.748Z,4.50
2018-09-11T03:25:05.756Z,4.10
2018-09-11T03:26:05.916Z,3.90
2018-09-11T03:27:05.776Z,3.80
2018-09-11T03:28:05.816Z,4.00
2018-09-11T03:29:05.868Z,4.90
2018-09-11T03:30:05.817Z,3.70
2018-09-11T03:31:05.948Z,3.40
2018-09-11T03:32:05.838Z,3.90
2018-09-11T03:33:05.836Z,4.40
2018-09-11T03:34:05.875Z,4.30
2018-09-11T03:35:05.895Z,3.90
2018-09-11T03:36:06.025Z,4.20
2018-09-11T03:37:05.881Z,3.70
2018-09-11T03:38:05.895Z,4.10
2018-09-11T03:39:05.970Z,3.80
2018-09-11T03:40:05.930Z,4.20
2018-09-11T03:41:06.108Z,4.40
2018-09-11T03:42:05.987Z,3.90
2018-09-11T03:43:05.995Z,3.50
2018-09-11T03:44:06.018Z,3.50
2018-09-11T03:45:05.996Z,3.50
2018-09-11T03:46:05.996Z,3.50
2018-09-11T03:47:06.058Z,3.60
2018-09-11T03:48:06.068Z,3.90
2018-09-11T03:49:06.059Z,3.70
2018-09-11T03:50:06.122Z,3.70
2018-09-11T03:51:06.155Z,3.80
2018-09-11T03:52:06.065Z,7.60
2018-09-11T03:53:06.088Z,7.40
2018-09-11T03:54:06.139Z,6.90
2018-09-11T03:55:06.101Z,7.70
2018-09-11T03:56:06.131Z,8.80
2018-09-11T03:57:06.143Z,9.50
2018-09-11T03:58:06.180Z,7.70
2018-09-11T03:59:06.266Z,8.00
2018-09-11T04:00:06.178Z,6.60
2018-09-11T04:01:06.186Z,7.60
2018-09-11T04:02:06.287Z,6.10
2018-09-11T04:03:06.256Z,6.10
2018-09-11T04:04:06.220Z,4.80
2018-09-11T04:05:06.263Z,4.70
2018-09-11T04:06:06.250Z,6.20
2018-09-11T04:07:06.261Z,6.10
2018-09-11T04:08:06.285Z,6.50
2018-09-11T04:09:06.342Z,5.10
2018-09-11T04:10:06.295Z,4.70
2018-09-11T04:11:06.305Z,4.70
2018-09-11T04:12:06.411Z,3.90
2018-09-11T04:13:06.320Z,3.60
2018-09-11T04:14:06.362Z,3.30
2018-09-11T04:15:06.456Z,4.00
2018-09-11T04:16:06.367Z,3.80
2018-09-11T04:17:06.543Z,3.50
2018-09-11T04:18:06.390Z,3.50
2018-09-11T04:19:06.436Z,3.60
2018-09-11T04:20:06.401Z,3.80
2018-09-11T04:21:06.422Z,3.60
2018-09-11T04:22:06.577Z,3.60
2018-09-11T04:23:06.581Z,3.60
2018-09-11T04:24:06.513Z,3.60
2018-09-11T04:25:06.542Z,3.90
2018-09-11T04:26:06.532Z,3.60
2018-09-11T04:27:06.646Z,4.30
2018-09-11T04:28:06.511Z,4.10
2018-09-11T04:29:06.562Z,3.70
2018-09-11T04:30:06.533Z,4.50
2018-09-11T04:31:06.559Z,4.30
2018-09-11T04:32:06.569Z,4.00
2018-09-11T04:33:06.562Z,4.00
2018-09-11T04:34:06.586Z,4.20
2018-09-11T04:35:06.616Z,4.00
2018-09-11T04:36:06.647Z,4.20
2018-09-11T04:37:06.813Z,4.10
2018-09-11T04:38:06.614Z,3.80
2018-09-11T04:39:06.658Z,4.20
2018-09-11T04:40:06.661Z,4.10
2018-09-11T04:41:06.702Z,4.10
2018-09-11T04:42:06.947Z,4.30
2018-09-11T04:43:06.797Z,4.50
2018-09-11T04:44:06.754Z,4.40
2018-09-11T04:45:06.732Z,4.00
2018-09-11T04:46:06.785Z,5.10
2018-09-11T04:47:06.889Z,4.40
2018-09-11T04:48:06.791Z,4.60
2018-09-11T04:49:06.795Z,4.30
2018-09-11T04:50:06.780Z,4.10
2018-09-11T04:51:06.822Z,4.20
2018-09-11T04:52:06.938Z,4.50
2018-09-11T04:53:06.848Z,4.40
2018-09-11T04:54:06.856Z,5.20
2018-09-11T04:55:06.844Z,5.10
2018-09-11T04:56:06.978Z,4.60
2018-09-11T04:57:06.999Z,4.80
2018-09-11T04:58:06.865Z,4.60
2018-09-11T04:59:06.907Z,4.80
2018-09-11T05:00:06.906Z,4.60
2018-09-11T05:01:06.928Z,5.40
2018-09-11T05:02:07.222Z,5.00
2018-09-11T05:03:06.968Z,4.70
2018-09-11T05:04:06.971Z,4.20
2018-09-11T05:05:06.990Z,4.40
2018-09-11T05:06:06.994Z,6.70
2018-09-11T05:07:06.988Z,5.30
2018-09-11T05:08:07.160Z,7.00
2018-09-11T05:09:07.033Z,5.80
2018-09-11T05:10:07.070Z,5.40
2018-09-11T05:11:07.055Z,5.30
2018-09-11T05:12:07.063Z,4.60
2018-09-11T05:13:07.192Z,4.50
2018-09-11T05:14:07.071Z,4.80
2018-09-11T05:15:07.089Z,5.20
2018-09-11T05:16:07.090Z,5.30
2018-09-11T05:17:07.089Z,4.80
2018-09-11T05:18:07.160Z,5.50
2018-09-11T05:19:07.355Z,5.10
2018-09-11T05:20:07.154Z,5.10
2018-09-11T05:21:07.165Z,5.60
2018-09-11T05:22:07.186Z,5.20
2018-09-11T05:23:07.156Z,5.10
2018-09-11T05:24:07.370Z,5.80
2018-09-11T05:25:07.221Z,5.70
2018-09-11T05:26:07.252Z,5.80
2018-09-11T05:27:07.232Z,5.90
2018-09-11T05:28:07.223Z,5.90
2018-09-11T05:29:07.423Z,6.50
2018-09-11T05:30:07.260Z,6.10
2018-09-11T05:31:07.258Z,5.70
2018-09-11T05:32:07.290Z,5.30
2018-09-11T05:33:07.293Z,5.40
2018-09-11T05:34:07.683Z,5.40
2018-09-11T05:35:07.319Z,5.20
2018-09-11T05:36:07.328Z,5.20
2018-09-11T05:37:07.351Z,5.00
2018-09-11T05:38:07.376Z,5.70
2018-09-11T05:39:07.765Z,5.80
2018-09-11T05:40:07.417Z,5.70
2018-09-11T05:41:07.409Z,5.90
2018-09-11T05:42:07.415Z,6.10
2018-09-11T05:43:07.436Z,6.30
2018-09-11T05:44:07.579Z,6.80
2018-09-11T05:45:07.427Z,6.10
2018-09-11T05:46:07.486Z,6.50
2018-09-11T05:47:07.545Z,6.20
2018-09-11T05:48:07.469Z,6.70
2018-09-11T05:49:07.745Z,7.40
2018-09-11T05:50:07.499Z,6.40
2018-09-11T05:51:07.510Z,6.50
2018-09-11T05:52:07.564Z,7.00
2018-09-11T05:53:07.583Z,6.80
2018-09-11T05:54:07.741Z,7.10
2018-09-11T05:55:07.572Z,6.90
2018-09-11T05:56:07.569Z,6.90
2018-09-11T05:57:07.565Z,6.90
2018-09-11T05:58:07.628Z,6.90
2018-09-11T05:59:07.789Z,7.30
2018-09-11T06:00:07.667Z,7.80
2018-09-11T06:01:07.635Z,7.50
2018-09-11T06:02:07.635Z,7.70
2018-09-11T06:03:07.654Z,7.80
2018-09-11T06:04:07.857Z,7.90
2018-09-11T06:05:07.664Z,8.00
2018-09-11T06:06:07.682Z,7.80
2018-09-11T06:07:07.687Z,7.10
2018-09-11T06:08:07.712Z,7.10
2018-09-11T06:09:07.962Z,7.60
2018-09-11T06:10:07.730Z,7.20
2018-09-11T06:11:07.728Z,6.80
2018-09-11T06:12:07.739Z,6.60
2018-09-11T06:13:07.771Z,7.20
2018-09-11T06:14:07.999Z,7.00
2018-09-11T06:15:07.876Z,7.00
2018-09-11T06:16:07.813Z,7.60
2018-09-11T06:17:07.800Z,7.90
2018-09-11T06:18:07.817Z,7.80
2018-09-11T06:19:08.047Z,7.80
2018-09-11T06:20:07.837Z,8.10
2018-09-11T06:21:07.858Z,8.00
2018-09-11T06:22:07.862Z,8.20
2018-09-11T06:23:07.885Z,7.90
2018-09-11T06:24:08.062Z,8.80
2018-09-11T06:25:07.909Z,8.50
2018-09-11T06:26:07.909Z,8.60
2018-09-11T06:27:07.918Z,9.10
2018-09-11T06:28:07.938Z,8.80
2018-09-11T06:29:08.176Z,8.50
2018-09-11T06:30:07.968Z,8.70
2018-09-11T06:31:07.978Z,8.30
2018-09-11T06:32:08.041Z,9.40
2018-09-11T06:33:08.007Z,10.30
2018-09-11T06:34:08.286Z,9.50
2018-09-11T06:35:08.029Z,8.50
2018-09-11T06:36:08.030Z,8.00
2018-09-11T06:37:08.056Z,8.40
2018-09-11T06:38:08.068Z,9.90
2018-09-11T06:39:08.073Z,10.40
2018-09-11T06:40:08.342Z,9.60
2018-09-11T06:41:08.144Z,9.80
2018-09-11T06:42:08.141Z,9.70
2018-09-11T06:43:08.128Z,9.70
2018-09-11T06:44:08.147Z,9.30
2018-09-11T06:45:08.136Z,9.30
2018-09-11T06:46:08.246Z,10.30
2018-09-11T06:47:08.202Z,10.00
2018-09-11T06:48:08.175Z,10.40
2018-09-11T06:49:08.498Z,10.20
2018-09-11T06:50:08.202Z,9.70
2018-09-11T06:51:08.363Z,9.80
2018-09-11T06:52:08.238Z,9.40
2018-09-11T06:53:08.252Z,9.80
2018-09-11T06:54:08.299Z,9.50
2018-09-11T06:55:08.268Z,9.80
2018-09-11T06:56:08.531Z,9.50
2018-09-11T06:57:08.329Z,8.80
2018-09-11T06:58:08.292Z,8.20
2018-09-11T06:59:08.394Z,8.30
2018-09-11T07:00:08.321Z,8.80
2018-09-11T07:01:08.490Z,7.40
2018-09-11T07:02:08.354Z,7.00
2018-09-11T07:03:08.353Z,7.20
2018-09-11T07:04:08.376Z,7.40
2018-09-11T07:05:08.396Z,8.30
2018-09-11T07:06:08.553Z,8.80
2018-09-11T07:07:08.399Z,9.00
2018-09-11T07:08:08.412Z,9.80
2018-09-11T07:09:08.428Z,9.00
2018-09-11T07:10:08.455Z,8.40
2018-09-11T07:11:08.598Z,9.20
2018-09-11T07:12:08.465Z,8.30
2018-09-11T07:13:08.484Z,9.20
2018-09-11T07:14:08.550Z,8.70
2018-09-11T07:15:08.497Z,8.40
2018-09-11T07:16:08.673Z,8.40
2018-09-11T07:17:08.532Z,8.50
2018-09-11T07:18:08.546Z,8.40
2018-09-11T07:19:08.581Z,8.30
2018-09-11T07:20:08.821Z,8.00
2018-09-11T07:21:08.721Z,7.80
2018-09-11T07:22:08.593Z,8.50
2018-09-11T07:23:08.592Z,8.00
2018-09-11T07:24:08.606Z,8.80
2018-09-11T07:25:08.628Z,9.30
2018-09-11T07:26:08.833Z,10.60
2018-09-11T07:27:08.653Z,10.20
2018-09-11T07:28:08.664Z,10.40
2018-09-11T07:29:08.667Z,9.90
2018-09-11T07:30:08.689Z,9.80
2018-09-11T07:31:08.787Z,9.50
2018-09-11T07:32:08.714Z,9.70
2018-09-11T07:33:08.712Z,9.70
2018-09-11T07:34:08.735Z,9.10
2018-09-11T07:35:08.735Z,9.40
2018-09-11T07:36:08.912Z,7.90
2018-09-11T07:37:08.771Z,8.40
2018-09-11T07:38:08.782Z,8.00
2018-09-11T07:39:08.784Z,8.60
2018-09-11T07:40:08.808Z,7.90
2018-09-11T07:41:08.906Z,8.00
2018-09-11T07:42:08.830Z,8.20
2018-09-11T07:43:08.834Z,8.00
2018-09-11T07:44:08.840Z,8.10
2018-09-11T07:45:08.867Z,8.30
2018-09-11T07:46:08.983Z,8.50
2018-09-11T07:47:08.875Z,8.30
2018-09-11T07:48:08.885Z,8.50
2018-09-11T07:49:09.003Z,8.80
2018-09-11T07:50:08.926Z,8.10
2018-09-11T07:51:09.088Z,8.40
2018-09-11T07:52:08.934Z,9.10
2018-09-11T07:53:08.966Z,8.30
2018-09-11T07:54:09.023Z,8.40
2018-09-11T07:55:08.984Z,8.30
2018-09-11T07:56:09.147Z,7.90
2018-09-11T07:57:09.016Z,8.70
2018-09-11T07:58:09.095Z,8.90
2018-09-11T07:59:09.035Z,8.40
2018-09-11T08:00:09.036Z,9.10
2018-09-11T08:01:09.042Z,9.00
2018-09-11T08:02:09.312Z,8.50
2018-09-11T08:03:09.075Z,8.10
2018-09-11T08:04:09.078Z,8.20
2018-09-11T08:05:09.161Z,8.40
2018-09-11T08:06:09.099Z,8.50
2018-09-11T08:07:09.119Z,9.00
2018-09-11T08:08:09.292Z,9.10
2018-09-11T08:09:09.149Z,9.40
2018-09-11T08:10:09.152Z,9.10
2018-09-11T08:11:09.173Z,8.90
2018-09-11T08:12:09.171Z,9.50
2018-09-11T08:13:09.357Z,10.20
2018-09-11T08:14:09.259Z,9.60
2018-09-11T08:15:09.215Z,10.10
2018-09-11T08:16:09.233Z,9.80
2018-09-11T08:17:09.250Z,9.50
2018-09-11T08:18:09.391Z,9.40
2018-09-11T08:19:09.272Z,9.50
2018-09-11T08:20:09.278Z,9.90
2018-09-11T08:21:09.284Z,9.60
2018-09-11T08:22:09.294Z,9.00
2018-09-11T08:23:09.454Z,10.20
2018-09-11T08:24:09.332Z,10.20
2018-09-11T08:25:09.333Z,9.40
2018-09-11T08:26:09.354Z,8.70
2018-09-11T08:27:09.370Z,9.60
2018-09-11T08:28:09.612Z,9.80
2018-09-11T08:29:09.402Z,8.80
2018-09-11T08:30:09.396Z,8.60
2018-09-11T08:31:09.396Z,8.20
2018-09-11T08:32:09.408Z,8.50
2018-09-11T08:33:09.527Z,8.40
2018-09-11T08:34:09.440Z,8.40
2018-09-11T08:35:09.458Z,8.20
2018-09-11T08:36:09.459Z,8.80
2018-09-11T08:37:09.473Z,7.80
2018-09-11T08:38:09.744Z,8.50
2018-09-11T08:39:09.493Z,9.30
2018-09-11T08:40:09.508Z,8.60
2018-09-11T08:41:09.559Z,9.90
2018-09-11T08:42:09.527Z,11.20
2018-09-11T08:43:09.696Z,10.80
2018-09-11T08:44:09.556Z,10.10
2018-09-11T08:45:09.576Z,10.30
2018-09-11T08:46:09.577Z,8.80
2018-09-11T08:47:09.589Z,8.60
2018-09-11T08:48:09.852Z,11.70
2018-09-11T08:49:09.622Z,8.90
2018-09-11T08:50:09.636Z,9.00
2018-09-11T08:51:09.629Z,9.60
2018-09-11T08:52:09.713Z,8.30
2018-09-11T08:53:09.771Z,9.10
2018-09-11T08:54:09.665Z,8.60
2018-09-11T08:55:09.694Z,9.10
2018-09-11T08:56:09.707Z,7.70
2018-09-11T08:57:09.704Z,6.80
2018-09-11T08:58:09.966Z,7.50
2018-09-11T08:59:09.766Z,7.50
2018-09-11T09:00:09.750Z,7.90
2018-09-11T09:01:09.747Z,7.70
2018-09-11T09:02:09.762Z,8.00
2018-09-11T09:03:09.870Z,7.60
2018-09-11T09:04:09.797Z,7.40
2018-09-11T09:05:09.794Z,7.60
2018-09-11T09:06:09.827Z,7.40
2018-09-11T09:07:09.820Z,7.70
2018-09-11T09:08:09.994Z,7.70
2018-09-11T09:09:09.861Z,7.70
2018-09-11T09:10:09.987Z,7.90
2018-09-11T09:11:09.883Z,7.70
2018-09-11T09:12:09.881Z,7.50
2018-09-11T09:13:10.052Z,7.40
2018-09-11T09:14:09.899Z,7.30
2018-09-11T09:15:09.913Z,7.80
2018-09-11T09:16:09.925Z,7.40
2018-09-11T09:17:09.947Z,7.90
2018-09-11T09:18:10.044Z,7.40
2018-09-11T09:19:09.980Z,7.60
2018-09-11T09:20:09.985Z,7.20
2018-09-11T09:21:09.994Z,7.60
2018-09-11T09:22:10.008Z,7.90
2018-09-11T09:23:10.162Z,7.70
2018-09-11T09:24:10.034Z,7.90
2018-09-11T09:25:10.030Z,8.20
2018-09-11T09:26:10.047Z,7.60
2018-09-11T09:27:10.108Z,8.00
2018-09-11T09:28:10.079Z,7.70
2018-09-11T09:29:10.229Z,7.70
2018-09-11T09:30:10.089Z,7.20
2018-09-11T09:31:10.103Z,7.80
2018-09-11T09:32:10.111Z,7.90
2018-09-11T09:33:10.131Z,8.50
2018-09-11T09:34:10.147Z,8.10
2018-09-11T09:35:10.157Z,8.00
2018-09-11T09:36:10.159Z,8.30
2018-09-11T09:37:10.164Z,8.20
2018-09-11T09:38:10.180Z,8.20
2018-09-11T09:39:10.295Z,8.40
2018-09-11T09:40:10.254Z,8.00
2018-09-11T09:41:10.218Z,8.40
2018-09-11T09:42:10.245Z,8.70
2018-09-11T09:43:10.251Z,8.40
2018-09-11T09:44:10.364Z,8.10
2018-09-11T09:45:10.276Z,8.70
2018-09-11T09:46:10.291Z,9.30
2018-09-11T09:47:10.285Z,10.50
2018-09-11T09:48:10.302Z,11.00
2018-09-11T09:49:10.444Z,11.60
2018-09-11T09:50:10.341Z,11.30
2018-09-11T09:51:10.354Z,11.90
2018-09-11T09:52:10.349Z,12.50
2018-09-11T09:53:10.374Z,12.30
2018-09-11T09:54:10.471Z,11.80
2018-09-11T09:55:10.391Z,14.00
2018-09-11T09:56:10.399Z,13.60
2018-09-11T09:57:10.422Z,11.20
2018-09-11T09:58:10.425Z,10.50
2018-09-11T09:59:10.547Z,11.10
2018-09-11T10:00:10.457Z,10.40
2018-09-11T10:01:10.473Z,10.00
2018-09-11T10:02:10.468Z,9.80
2018-09-11T10:03:10.483Z,10.30
2018-09-11T10:04:10.651Z,10.30
2018-09-11T10:05:10.516Z,10.60
2018-09-11T10:06:10.518Z,10.70
2018-09-11T10:07:10.530Z,10.30
2018-09-11T10:08:10.555Z,11.90
2018-09-11T10:09:10.554Z,11.20
2018-09-11T10:10:10.577Z,10.00
2018-09-11T10:11:10.588Z,9.50
2018-09-11T10:12:10.606Z,11.20
2018-09-11T10:13:10.600Z,10.50
2018-09-11T10:14:10.869Z,10.40
2018-09-11T10:15:10.645Z,10.30
2018-09-11T10:16:10.655Z,10.80
2018-09-11T10:17:10.665Z,9.20
2018-09-11T10:18:10.675Z,9.40
2018-09-11T10:19:10.826Z,9.50
2018-09-11T10:20:10.704Z,8.80
2018-09-11T10:21:10.715Z,9.00
2018-09-11T10:22:10.710Z,9.30
2018-09-11T10:23:10.726Z,9.20
2018-09-11T10:24:10.889Z,9.50
2018-09-11T10:25:10.769Z,9.60
2018-09-11T10:26:10.763Z,9.30
2018-09-11T10:27:10.789Z,9.50
2018-09-11T10:28:10.801Z,9.40
2018-09-11T10:29:10.798Z,9.10
2018-09-11T10:30:10.812Z,9.30
2018-09-11T10:31:10.844Z,9.60
2018-09-11T10:32:10.836Z,10.60
2018-09-11T10:33:10.856Z,11.10
2018-09-11T10:34:10.982Z,9.90
2018-09-11T10:35:10.889Z,9.00
2018-09-11T10:36:10.904Z,8.40
2018-09-11T10:37:10.916Z,9.20
2018-09-11T10:38:10.925Z,9.10
2018-09-11T10:39:11.080Z,8.90
2018-09-11T10:40:10.939Z,8.70
2018-09-11T10:41:10.955Z,8.70
2018-09-11T10:42:10.978Z,8.90
2018-09-11T10:43:10.975Z,9.70
2018-09-11T10:44:10.995Z,8.60
2018-09-11T10:45:11.257Z,9.00
2018-09-11T10:46:11.035Z,8.20
2018-09-11T10:47:11.035Z,8.90
2018-09-11T10:48:11.046Z,9.30
2018-09-11T10:49:11.058Z,8.30
2018-09-11T10:50:11.082Z,8.20
2018-09-11T10:51:11.194Z,8.20
2018-09-11T10:52:11.116Z,8.20
2018-09-11T10:53:11.108Z,8.50
2018-09-11T10:54:11.131Z,8.80
2018-09-11T10:55:11.137Z,9.10
2018-09-11T10:56:11.417Z,8.60
2018-09-11T10:57:11.182Z,8.40
2018-09-11T10:58:11.189Z,8.60
2018-09-11T10:59:11.202Z,8.30
2018-09-11T11:00:11.219Z,8.30
2018-09-11T11:01:11.295Z,8.10
2018-09-11T11:02:11.243Z,8.40
2018-09-11T11:03:11.255Z,8.30
2018-09-11T11:04:11.258Z,8.60
2018-09-11T11:05:11.268Z,8.40
2018-09-11T11:06:11.282Z,8.20
2018-09-11T11:07:11.317Z,7.80
2018-09-11T11:08:11.327Z,8.00
2018-09-11T11:09:11.325Z,8.00
2018-09-11T11:10:11.357Z,8.10
2018-09-11T11:11:11.519Z,7.80
2018-09-11T11:12:11.382Z,7.80
2018-09-11T11:13:11.384Z,7.70
2018-09-11T11:14:11.404Z,7.80
2018-09-11T11:15:11.412Z,8.20
2018-09-11T11:16:11.592Z,7.90
2018-09-11T11:17:11.475Z,7.20
2018-09-11T11:18:11.507Z,7.20
2018-09-11T11:19:11.480Z,7.60
2018-09-11T11:20:11.491Z,7.40
2018-09-11T11:21:11.652Z,7.20
2018-09-11T11:22:11.511Z,7.30
2018-09-11T11:23:11.524Z,6.80
2018-09-11T11:24:11.555Z,7.30
2018-09-11T11:25:11.573Z,7.40
2018-09-11T11:26:11.673Z,8.10
2018-09-11T11:27:11.722Z,9.50
2018-09-11T11:28:11.603Z,8.50
2018-09-11T11:29:11.640Z,8.90
2018-09-11T11:30:11.632Z,8.70
2018-09-11T11:31:11.817Z,8.80
2018-09-11T11:32:11.658Z,8.40
2018-09-11T11:33:11.680Z,8.30
2018-09-11T11:34:11.706Z,8.50
2018-09-11T11:35:11.724Z,8.40
2018-09-11T11:36:12.156Z,8.00
2018-09-11T11:37:12.035Z,7.60
2018-09-11T11:38:11.756Z,7.70
2018-09-11T11:39:11.833Z,7.50
2018-09-11T11:40:11.782Z,7.70
2018-09-11T11:41:11.963Z,7.40
2018-09-11T11:42:11.889Z,6.90
2018-09-11T11:43:11.844Z,7.30
2018-09-11T11:44:11.889Z,7.70
2018-09-11T11:45:11.878Z,9.00
2018-09-11T11:46:12.042Z,10.10
2018-09-11T11:47:11.901Z,9.90
2018-09-11T11:48:11.958Z,10.00
2018-09-11T11:49:11.933Z,11.80
2018-09-11T11:50:11.947Z,14.40
2018-09-11T11:51:12.057Z,15.90
2018-09-11T11:52:11.989Z,16.90
2018-09-11T11:53:11.991Z,15.00
2018-09-11T11:54:12.019Z,17.70
2018-09-11T11:55:12.099Z,15.80
2018-09-11T11:56:12.048Z,15.70
2018-09-11T11:57:12.202Z,14.70
2018-09-11T11:58:12.074Z,13.20
2018-09-11T11:59:12.103Z,13.40
2018-09-11T12:00:12.109Z,12.10
2018-09-11T12:01:12.134Z,12.30
2018-09-11T12:02:12.147Z,12.60
2018-09-11T12:03:12.148Z,14.10
2018-09-11T12:04:12.182Z,13.60
2018-09-11T12:05:12.182Z,12.70
2018-09-11T12:06:12.200Z,13.40
2018-09-11T12:07:12.382Z,12.60
2018-09-11T12:08:12.235Z,12.50
2018-09-11T12:09:12.251Z,12.70
2018-09-11T12:10:12.289Z,12.50
2018-09-11T12:11:12.286Z,12.00
2018-09-11T12:12:12.298Z,11.80
2018-09-11T12:13:12.317Z,11.70
2018-09-11T12:14:12.348Z,12.30
2018-09-11T12:15:12.367Z,13.20
2018-09-11T12:16:12.428Z,13.30
2018-09-11T12:17:12.404Z,23.60
2018-09-11T12:18:12.407Z,11.90
2018-09-11T12:19:12.428Z,17.10
2018-09-11T12:20:12.438Z,12.60
2018-09-11T12:21:12.453Z,12.30
2018-09-11T12:22:12.628Z,11.80
2018-09-11T12:23:12.488Z,12.80
2018-09-11T12:24:12.524Z,13.00
2018-09-11T12:25:12.540Z,13.70
2018-09-11T12:26:12.559Z,14.20
2018-09-11T12:27:12.725Z,14.20
2018-09-11T12:28:12.597Z,13.40
2018-09-11T12:29:12.605Z,14.30
2018-09-11T12:30:12.624Z,14.00
2018-09-11T12:31:12.682Z,14.50
2018-09-11T12:32:12.799Z,15.80
2018-09-11T12:33:12.664Z,14.40
2018-09-11T12:34:12.694Z,14.30
2018-09-11T12:35:12.755Z,14.20
2018-09-11T12:36:12.712Z,13.50
2018-09-11T12:37:12.898Z,14.00
2018-09-11T12:38:12.746Z,13.90
2018-09-11T12:39:12.761Z,14.40
2018-09-11T12:40:12.775Z,13.70
2018-09-11T12:41:12.790Z,14.60
2018-09-11T12:42:12.960Z,14.30
2018-09-11T12:43:12.826Z,13.80
2018-09-11T12:44:12.841Z,14.60
2018-09-11T12:45:12.871Z,21.00
2018-09-11T12:46:13.299Z,13.70
2018-09-11T12:47:13.287Z,12.70
2018-09-11T12:48:13.202Z,11.90
2018-09-11T12:49:12.927Z,13.10
2018-09-11T12:50:12.948Z,10.70
2018-09-11T12:51:12.975Z,11.30
2018-09-11T12:52:13.146Z,11.20
2018-09-11T12:53:12.996Z,12.30
2018-09-11T12:54:13.025Z,11.30
2018-09-11T12:55:13.034Z,12.10
2018-09-11T12:56:13.049Z,11.70
2018-09-11T12:57:13.220Z,11.40
2018-09-11T12:58:13.080Z,12.40
2018-09-11T12:59:13.108Z,11.40
2018-09-11T13:00:13.119Z,11.30
2018-09-11T13:01:13.146Z,11.70
2018-09-11T13:02:13.291Z,11.50
2018-09-11T13:03:13.174Z,11.20
2018-09-11T13:04:32.389Z,11.10
2018-09-11T13:05:16.236Z,11.30
2018-09-11T13:06:13.222Z,10.30
2018-09-11T13:07:13.402Z,9.80
2018-09-11T13:08:13.267Z,10.10
2018-09-11T13:09:13.353Z,9.40
2018-09-11T13:10:13.301Z,9.30
2018-09-11T13:11:13.305Z,9.10
2018-09-11T13:12:13.451Z,9.30
2018-09-11T13:13:13.335Z,9.20